sensor_id;sensor_type;location;lat;lon;timestamp;temperature;humidity
2439;DHT22;14509;47.992;7.848;2022-11-24T00:01:01;13.00;58.80
2439;DHT22;14509;47.992;7.848;2022-11-24T00:03:03;13.00;58.80
2439;DHT22;14509;47.992;7.848;2022-11-24T00:05:07;12.90;58.60
2439;DHT22;14509;47.992;7.848;2022-11-24T00:07:09;12.90;58.60
2439;DHT22;14509;47.992;7.848;2022-11-24T00:09:11;12.90;58.60
2439;DHT22;14509;47.992;7.848;2022-11-24T00:11:14;12.90;58.60
2439;DHT22;14509;47.992;7.848;2022-11-24T00:13:16;13.00;58.80
2439;DHT22;14509;47.992;7.848;2022-11-24T00:15:18;12.80;58.70
2439;DHT22;14509;47.992;7.848;2022-11-24T00:17:20;12.80;58.70
2439;DHT22;14509;47.992;7.848;2022-11-24T00:19:22;12.90;58.70
2439;DHT22;14509;47.992;7.848;2022-11-24T00:21:27;12.90;58.60
2439;DHT22;14509;47.992;7.848;2022-11-24T00:23:29;12.90;58.70
2439;DHT22;14509;47.992;7.848;2022-11-24T00:25:31;12.90;58.70
2439;DHT22;14509;47.992;7.848;2022-11-24T00:27:33;12.90;58.70
2439;DHT22;14509;47.992;7.848;2022-11-24T00:29:35;12.90;58.60
2439;DHT22;14509;47.992;7.848;2022-11-24T00:31:38;12.90;58.40
2439;DHT22;14509;47.992;7.848;2022-11-24T00:33:40;13.10;58.40
2439;DHT22;14509;47.992;7.848;2022-11-24T00:35:42;13.10;58.10
2439;DHT22;14509;47.992;7.848;2022-11-24T00:37:45;13.20;58.00
2439;DHT22;14509;47.992;7.848;2022-11-24T00:39:47;13.30;57.70
2439;DHT22;14509;47.992;7.848;2022-11-24T00:41:49;13.40;57.40
2439;DHT22;14509;47.992;7.848;2022-11-24T00:43:51;13.40;57.10
2439;DHT22;14509;47.992;7.848;2022-11-24T00:45:53;13.60;57.00
2439;DHT22;14509;47.992;7.848;2022-11-24T00:47:55;13.50;56.80
2439;DHT22;14509;47.992;7.848;2022-11-24T00:49:57;13.60;56.70
2439;DHT22;14509;47.992;7.848;2022-11-24T00:51:59;13.60;56.50
2439;DHT22;14509;47.992;7.848;2022-11-24T00:54:02;14.10;56.60
2439;DHT22;14509;47.992;7.848;2022-11-24T00:56:06;13.70;56.30
2439;DHT22;14509;47.992;7.848;2022-11-24T00:58:09;13.80;56.20
2439;DHT22;14509;47.992;7.848;2022-11-24T01:00:11;13.80;56.00
2439;DHT22;14509;47.992;7.848;2022-11-24T01:02:13;13.80;56.10
2439;DHT22;14509;47.992;7.848;2022-11-24T01:04:15;13.80;56.00
2439;DHT22;14509;47.992;7.848;2022-11-24T01:06:20;13.80;56.00
2439;DHT22;14509;47.992;7.848;2022-11-24T01:08:22;13.80;56.50
2439;DHT22;14509;47.992;7.848;2022-11-24T01:10:25;13.80;55.80
2439;DHT22;14509;47.992;7.848;2022-11-24T01:12:27;14.00;55.90
2439;DHT22;14509;47.992;7.848;2022-11-24T01:14:30;13.80;55.60
2439;DHT22;14509;47.992;7.848;2022-11-24T01:16:34;13.90;55.70
2439;DHT22;14509;47.992;7.848;2022-11-24T01:18:38;13.80;55.70
2439;DHT22;14509;47.992;7.848;2022-11-24T01:20:40;13.80;55.80
2439;DHT22;14509;47.992;7.848;2022-11-24T01:22:41;13.70;55.90
2439;DHT22;14509;47.992;7.848;2022-11-24T01:24:43;13.80;56.00
2439;DHT22;14509;47.992;7.848;2022-11-24T01:26:47;13.80;55.90
2439;DHT22;14509;47.992;7.848;2022-11-24T01:28:51;13.90;55.80
2439;DHT22;14509;47.992;7.848;2022-11-24T01:30:57;13.90;55.80
2439;DHT22;14509;47.992;7.848;2022-11-24T01:32:59;13.90;55.60
2439;DHT22;14509;47.992;7.848;2022-11-24T01:35:00;13.90;55.80
2439;DHT22;14509;47.992;7.848;2022-11-24T01:37:02;13.80;56.00
2439;DHT22;14509;47.992;7.848;2022-11-24T01:39:04;13.70;56.00
2439;DHT22;14509;47.992;7.848;2022-11-24T01:41:09;13.70;56.20
2439;DHT22;14509;47.992;7.848;2022-11-24T01:43:18;13.70;56.30
2439;DHT22;14509;47.992;7.848;2022-11-24T01:45:33;13.70;56.50
2439;DHT22;14509;47.992;7.848;2022-11-24T01:47:38;13.60;56.50
2439;DHT22;14509;47.992;7.848;2022-11-24T01:49:45;13.60;56.50
2439;DHT22;14509;47.992;7.848;2022-11-24T01:51:51;13.50;56.60
2439;DHT22;14509;47.992;7.848;2022-11-24T01:53:57;13.50;56.70
2439;DHT22;14509;47.992;7.848;2022-11-24T01:56:01;13.50;56.80
2439;DHT22;14509;47.992;7.848;2022-11-24T01:58:08;13.40;56.80
2439;DHT22;14509;47.992;7.848;2022-11-24T02:00:14;13.50;57.00
2439;DHT22;14509;47.992;7.848;2022-11-24T02:02:18;13.30;57.10
2439;DHT22;14509;47.992;7.848;2022-11-24T02:04:24;13.20;57.20
2439;DHT22;14509;47.992;7.848;2022-11-24T02:06:29;13.20;57.20
2439;DHT22;14509;47.992;7.848;2022-11-24T02:08:39;13.20;57.10
2439;DHT22;14509;47.992;7.848;2022-11-24T02:10:44;13.20;57.30
2439;DHT22;14509;47.992;7.848;2022-11-24T02:12:48;13.20;57.30
2439;DHT22;14509;47.992;7.848;2022-11-24T02:14:51;13.10;57.20
2439;DHT22;14509;47.992;7.848;2022-11-24T02:16:55;13.20;57.20
2439;DHT22;14509;47.992;7.848;2022-11-24T02:18:57;13.10;57.10
2439;DHT22;14509;47.992;7.848;2022-11-24T02:20:59;13.10;57.20
2439;DHT22;14509;47.992;7.848;2022-11-24T02:23:05;13.10;57.10
2439;DHT22;14509;47.992;7.848;2022-11-24T02:25:15;13.10;57.10
2439;DHT22;14509;47.992;7.848;2022-11-24T02:27:20;13.10;57.10
2439;DHT22;14509;47.992;7.848;2022-11-24T02:29:23;13.10;57.20
2439;DHT22;14509;47.992;7.848;2022-11-24T02:31:25;13.00;57.10
2439;DHT22;14509;47.992;7.848;2022-11-24T02:33:27;13.00;57.10
2439;DHT22;14509;47.992;7.848;2022-11-24T02:35:30;13.00;57.30
2439;DHT22;14509;47.992;7.848;2022-11-24T02:37:32;12.90;57.40
2439;DHT22;14509;47.992;7.848;2022-11-24T02:39:34;12.90;57.50
2439;DHT22;14509;47.992;7.848;2022-11-24T02:41:37;12.90;57.70
2439;DHT22;14509;47.992;7.848;2022-11-24T02:43:43;12.90;57.70
2439;DHT22;14509;47.992;7.848;2022-11-24T02:45:47;12.90;57.50
2439;DHT22;14509;47.992;7.848;2022-11-24T02:47:49;12.80;57.50
2439;DHT22;14509;47.992;7.848;2022-11-24T02:49:51;12.80;57.50
2439;DHT22;14509;47.992;7.848;2022-11-24T02:51:53;12.80;57.40
2439;DHT22;14509;47.992;7.848;2022-11-24T02:53:56;12.80;58.00
2439;DHT22;14509;47.992;7.848;2022-11-24T02:55:58;12.80;57.70
2439;DHT22;14509;47.992;7.848;2022-11-24T02:58:00;12.70;57.60
2439;DHT22;14509;47.992;7.848;2022-11-24T03:00:04;12.70;57.70
2439;DHT22;14509;47.992;7.848;2022-11-24T03:02:06;12.60;57.70
2439;DHT22;14509;47.992;7.848;2022-11-24T03:04:08;12.70;57.80
2439;DHT22;14509;47.992;7.848;2022-11-24T03:06:10;12.70;57.80
2439;DHT22;14509;47.992;7.848;2022-11-24T03:08:12;12.70;57.60
2439;DHT22;14509;47.992;7.848;2022-11-24T03:10:14;12.80;57.50
2439;DHT22;14509;47.992;7.848;2022-11-24T03:12:16;12.80;57.20
2439;DHT22;14509;47.992;7.848;2022-11-24T03:14:18;12.80;57.00
2439;DHT22;14509;47.992;7.848;2022-11-24T03:16:21;12.80;57.00
2439;DHT22;14509;47.992;7.848;2022-11-24T03:18:23;12.90;57.00
2439;DHT22;14509;47.992;7.848;2022-11-24T03:20:25;12.80;57.00
2439;DHT22;14509;47.992;7.848;2022-11-24T03:22:27;12.90;57.10
2439;DHT22;14509;47.992;7.848;2022-11-24T03:24:29;13.00;57.10
2439;DHT22;14509;47.992;7.848;2022-11-24T03:26:32;12.80;57.00
2439;DHT22;14509;47.992;7.848;2022-11-24T03:28:35;12.90;57.30
2439;DHT22;14509;47.992;7.848;2022-11-24T03:30:37;12.90;56.80
2439;DHT22;14509;47.992;7.848;2022-11-24T03:32:40;12.90;56.80
2439;DHT22;14509;47.992;7.848;2022-11-24T03:34:42;12.90;56.80
2439;DHT22;14509;47.992;7.848;2022-11-24T03:36:45;12.90;56.80
2439;DHT22;14509;47.992;7.848;2022-11-24T03:38:46;13.00;56.70
2439;DHT22;14509;47.992;7.848;2022-11-24T03:40:49;13.00;56.50
2439;DHT22;14509;47.992;7.848;2022-11-24T03:42:51;13.00;56.40
2439;DHT22;14509;47.992;7.848;2022-11-24T03:44:53;13.20;56.50
2439;DHT22;14509;47.992;7.848;2022-11-24T03:46:55;13.10;56.40
2439;DHT22;14509;47.992;7.848;2022-11-24T03:48:58;13.10;56.40
2439;DHT22;14509;47.992;7.848;2022-11-24T03:51:01;13.10;56.20
2439;DHT22;14509;47.992;7.848;2022-11-24T03:53:03;13.10;56.20
2439;DHT22;14509;47.992;7.848;2022-11-24T03:55:06;13.10;56.20
2439;DHT22;14509;47.992;7.848;2022-11-24T03:57:08;13.10;56.20
2439;DHT22;14509;47.992;7.848;2022-11-24T03:59:10;13.10;56.10
2439;DHT22;14509;47.992;7.848;2022-11-24T04:01:12;13.20;56.10
2439;DHT22;14509;47.992;7.848;2022-11-24T04:03:14;13.20;56.00
2439;DHT22;14509;47.992;7.848;2022-11-24T04:05:17;13.30;55.90
2439;DHT22;14509;47.992;7.848;2022-11-24T04:07:19;13.30;55.80
2439;DHT22;14509;47.992;7.848;2022-11-24T04:09:21;13.40;55.60
2439;DHT22;14509;47.992;7.848;2022-11-24T04:11:23;13.60;55.40
2439;DHT22;14509;47.992;7.848;2022-11-24T04:13:46;13.60;55.30
2439;DHT22;14509;47.992;7.848;2022-11-24T04:15:49;13.60;55.20
2439;DHT22;14509;47.992;7.848;2022-11-24T04:17:53;13.70;55.10
2439;DHT22;14509;47.992;7.848;2022-11-24T04:19:55;13.80;54.90
2439;DHT22;14509;47.992;7.848;2022-11-24T04:21:59;13.80;54.80
2439;DHT22;14509;47.992;7.848;2022-11-24T04:24:01;13.80;54.80
2439;DHT22;14509;47.992;7.848;2022-11-24T04:26:03;13.80;54.80
2439;DHT22;14509;47.992;7.848;2022-11-24T04:28:05;13.80;54.60
2439;DHT22;14509;47.992;7.848;2022-11-24T04:30:08;13.80;54.70
2439;DHT22;14509;47.992;7.848;2022-11-24T04:32:10;13.90;54.60
2439;DHT22;14509;47.992;7.848;2022-11-24T04:34:12;13.90;54.60
2439;DHT22;14509;47.992;7.848;2022-11-24T04:36:14;13.90;54.70
2439;DHT22;14509;47.992;7.848;2022-11-24T04:38:17;13.90;54.50
2439;DHT22;14509;47.992;7.848;2022-11-24T04:40:19;13.90;54.60
2439;DHT22;14509;47.992;7.848;2022-11-24T04:42:21;14.00;54.60
2439;DHT22;14509;47.992;7.848;2022-11-24T04:44:23;14.00;54.70
2439;DHT22;14509;47.992;7.848;2022-11-24T04:46:25;14.00;54.70
2439;DHT22;14509;47.992;7.848;2022-11-24T04:48:27;14.00;54.70
2439;DHT22;14509;47.992;7.848;2022-11-24T04:50:29;14.00;54.70
2439;DHT22;14509;47.992;7.848;2022-11-24T04:52:30;14.00;54.70
2439;DHT22;14509;47.992;7.848;2022-11-24T04:54:34;14.00;54.70
2439;DHT22;14509;47.992;7.848;2022-11-24T04:56:36;14.00;54.60
2439;DHT22;14509;47.992;7.848;2022-11-24T04:58:38;14.00;54.50
2439;DHT22;14509;47.992;7.848;2022-11-24T05:00:40;14.00;54.50
2439;DHT22;14509;47.992;7.848;2022-11-24T05:02:41;14.00;54.50
2439;DHT22;14509;47.992;7.848;2022-11-24T05:04:43;14.20;54.60
2439;DHT22;14509;47.992;7.848;2022-11-24T05:06:46;14.20;54.50
2439;DHT22;14509;47.992;7.848;2022-11-24T05:08:49;14.20;54.40
2439;DHT22;14509;47.992;7.848;2022-11-24T05:10:52;14.20;54.10
2439;DHT22;14509;47.992;7.848;2022-11-24T05:12:54;14.30;54.10
2439;DHT22;14509;47.992;7.848;2022-11-24T05:14:57;14.20;53.90
2439;DHT22;14509;47.992;7.848;2022-11-24T05:16:59;14.20;53.90
2439;DHT22;14509;47.992;7.848;2022-11-24T05:19:00;14.20;53.90
2439;DHT22;14509;47.992;7.848;2022-11-24T05:21:03;14.20;53.90
2439;DHT22;14509;47.992;7.848;2022-11-24T05:23:06;14.20;53.90
2439;DHT22;14509;47.992;7.848;2022-11-24T05:25:09;14.20;53.80
2439;DHT22;14509;47.992;7.848;2022-11-24T05:27:12;14.20;53.80
2439;DHT22;14509;47.992;7.848;2022-11-24T05:29:14;14.20;53.80
2439;DHT22;14509;47.992;7.848;2022-11-24T05:31:16;14.30;53.80
2439;DHT22;14509;47.992;7.848;2022-11-24T05:33:18;14.20;53.70
2439;DHT22;14509;47.992;7.848;2022-11-24T05:35:22;14.20;53.80
2439;DHT22;14509;47.992;7.848;2022-11-24T05:37:24;14.20;53.90
2439;DHT22;14509;47.992;7.848;2022-11-24T05:39:30;14.20;54.00
2439;DHT22;14509;47.992;7.848;2022-11-24T05:41:32;14.10;54.10
2439;DHT22;14509;47.992;7.848;2022-11-24T05:43:35;14.20;54.20
2439;DHT22;14509;47.992;7.848;2022-11-24T05:45:37;14.30;54.10
2439;DHT22;14509;47.992;7.848;2022-11-24T05:47:40;14.30;54.00
2439;DHT22;14509;47.992;7.848;2022-11-24T05:49:42;14.30;54.10
2439;DHT22;14509;47.992;7.848;2022-11-24T05:51:44;14.40;54.10
2439;DHT22;14509;47.992;7.848;2022-11-24T05:53:46;14.40;54.00
2439;DHT22;14509;47.992;7.848;2022-11-24T05:55:48;14.50;54.00
2439;DHT22;14509;47.992;7.848;2022-11-24T05:57:57;14.40;53.90
2439;DHT22;14509;47.992;7.848;2022-11-24T06:00:00;14.40;53.90
2439;DHT22;14509;47.992;7.848;2022-11-24T06:02:13;14.40;53.90
2439;DHT22;14509;47.992;7.848;2022-11-24T06:04:15;14.50;54.00
2439;DHT22;14509;47.992;7.848;2022-11-24T06:06:16;14.40;53.90
2439;DHT22;14509;47.992;7.848;2022-11-24T06:08:18;14.40;54.10
2439;DHT22;14509;47.992;7.848;2022-11-24T06:10:21;14.40;54.50
2439;DHT22;14509;47.992;7.848;2022-11-24T06:12:24;14.40;54.80
2439;DHT22;14509;47.992;7.848;2022-11-24T06:14:26;14.30;55.10
2439;DHT22;14509;47.992;7.848;2022-11-24T06:16:29;14.20;55.60
2439;DHT22;14509;47.992;7.848;2022-11-24T06:18:31;14.30;55.90
2439;DHT22;14509;47.992;7.848;2022-11-24T06:20:33;14.30;56.20
2439;DHT22;14509;47.992;7.848;2022-11-24T06:22:35;14.00;56.20
2439;DHT22;14509;47.992;7.848;2022-11-24T06:24:37;13.90;56.40
2439;DHT22;14509;47.992;7.848;2022-11-24T06:26:39;13.80;56.40
2439;DHT22;14509;47.992;7.848;2022-11-24T06:28:41;13.80;56.60
2439;DHT22;14509;47.992;7.848;2022-11-24T06:30:43;13.70;56.60
2439;DHT22;14509;47.992;7.848;2022-11-24T06:32:46;13.80;56.70
2439;DHT22;14509;47.992;7.848;2022-11-24T06:34:48;13.70;56.50
2439;DHT22;14509;47.992;7.848;2022-11-24T06:36:50;13.70;56.40
2439;DHT22;14509;47.992;7.848;2022-11-24T06:38:52;13.70;56.30
2439;DHT22;14509;47.992;7.848;2022-11-24T06:41:00;13.70;56.30
2439;DHT22;14509;47.992;7.848;2022-11-24T06:43:03;13.80;56.20
2439;DHT22;14509;47.992;7.848;2022-11-24T06:45:05;13.70;55.90
2439;DHT22;14509;47.992;7.848;2022-11-24T06:47:07;13.90;56.00
2439;DHT22;14509;47.992;7.848;2022-11-24T06:49:11;13.90;55.70
2439;DHT22;14509;47.992;7.848;2022-11-24T06:51:12;13.90;55.60
2439;DHT22;14509;47.992;7.848;2022-11-24T06:53:14;14.00;55.60
2439;DHT22;14509;47.992;7.848;2022-11-24T06:55:16;14.00;55.80
2439;DHT22;14509;47.992;7.848;2022-11-24T06:57:18;13.90;55.80
2439;DHT22;14509;47.992;7.848;2022-11-24T06:59:20;13.90;56.10
2439;DHT22;14509;47.992;7.848;2022-11-24T07:01:24;14.00;56.50
2439;DHT22;14509;47.992;7.848;2022-11-24T07:03:26;13.70;56.70
2439;DHT22;14509;47.992;7.848;2022-11-24T07:05:30;13.60;57.10
2439;DHT22;14509;47.992;7.848;2022-11-24T07:07:31;13.50;57.50
2439;DHT22;14509;47.992;7.848;2022-11-24T07:09:33;13.50;57.80
2439;DHT22;14509;47.992;7.848;2022-11-24T07:11:36;13.40;57.90
2439;DHT22;14509;47.992;7.848;2022-11-24T07:13:37;13.30;58.00
2439;DHT22;14509;47.992;7.848;2022-11-24T07:15:40;13.30;57.90
2439;DHT22;14509;47.992;7.848;2022-11-24T07:17:41;13.30;58.00
2439;DHT22;14509;47.992;7.848;2022-11-24T07:19:44;13.30;58.00
2439;DHT22;14509;47.992;7.848;2022-11-24T07:21:47;13.30;57.90
2439;DHT22;14509;47.992;7.848;2022-11-24T07:23:49;13.20;57.70
2439;DHT22;14509;47.992;7.848;2022-11-24T07:25:51;13.10;57.80
2439;DHT22;14509;47.992;7.848;2022-11-24T07:27:57;13.10;58.10
2439;DHT22;14509;47.992;7.848;2022-11-24T07:29:59;13.10;58.30
2439;DHT22;14509;47.992;7.848;2022-11-24T07:32:01;13.10;58.40
2439;DHT22;14509;47.992;7.848;2022-11-24T07:34:03;13.20;58.70
2439;DHT22;14509;47.992;7.848;2022-11-24T07:36:07;13.20;58.80
2439;DHT22;14509;47.992;7.848;2022-11-24T07:38:10;13.20;58.80
2439;DHT22;14509;47.992;7.848;2022-11-24T07:40:13;13.30;59.50
2439;DHT22;14509;47.992;7.848;2022-11-24T07:42:14;13.20;58.70
2439;DHT22;14509;47.992;7.848;2022-11-24T13:45:52;16.70;46.00
2439;DHT22;14509;47.992;7.848;2022-11-24T13:47:57;16.80;46.00
2439;DHT22;14509;47.992;7.848;2022-11-24T13:49:59;16.70;46.00
2439;DHT22;14509;47.992;7.848;2022-11-24T13:54:51;16.60;46.20
2439;DHT22;14509;47.992;7.848;2022-11-24T13:57:30;16.70;46.20
2439;DHT22;14509;47.992;7.848;2022-11-24T13:59:34;16.70;46.30
2439;DHT22;14509;47.992;7.848;2022-11-24T14:01:37;16.70;46.20
2439;DHT22;14509;47.992;7.848;2022-11-24T14:03:57;16.70;45.70
2439;DHT22;14509;47.992;7.848;2022-11-24T14:06:00;16.70;45.70
2439;DHT22;14509;47.992;7.848;2022-11-24T14:08:04;16.70;45.70
2439;DHT22;14509;47.992;7.848;2022-11-24T14:10:13;16.80;45.20
2439;DHT22;14509;47.992;7.848;2022-11-24T14:12:17;16.80;45.10
2439;DHT22;14509;47.992;7.848;2022-11-24T14:14:20;16.60;44.90
2439;DHT22;14509;47.992;7.848;2022-11-24T14:16:23;16.60;44.90
2439;DHT22;14509;47.992;7.848;2022-11-24T14:18:26;16.60;45.00
2439;DHT22;14509;47.992;7.848;2022-11-24T14:20:30;16.70;45.20
2439;DHT22;14509;47.992;7.848;2022-11-24T14:22:37;16.60;44.90
2439;DHT22;14509;47.992;7.848;2022-11-24T14:24:40;16.80;45.30
2439;DHT22;14509;47.992;7.848;2022-11-24T14:26:45;16.90;45.10
2439;DHT22;14509;47.992;7.848;2022-11-24T14:28:48;16.80;44.30
2439;DHT22;14509;47.992;7.848;2022-11-24T14:30:50;16.80;44.90
2439;DHT22;14509;47.992;7.848;2022-11-24T14:33:10;17.10;45.10
2439;DHT22;14509;47.992;7.848;2022-11-24T14:35:22;16.90;44.90
2439;DHT22;14509;47.992;7.848;2022-11-24T14:37:24;16.80;44.90
2439;DHT22;14509;47.992;7.848;2022-11-24T14:39:27;16.80;44.90
2439;DHT22;14509;47.992;7.848;2022-11-24T14:41:31;16.80;45.00
2439;DHT22;14509;47.992;7.848;2022-11-24T14:43:33;16.80;45.30
2439;DHT22;14509;47.992;7.848;2022-11-24T14:45:35;16.80;45.50
2439;DHT22;14509;47.992;7.848;2022-11-24T14:47:43;16.90;45.70
2439;DHT22;14509;47.992;7.848;2022-11-24T14:49:46;17.00;45.70
2439;DHT22;14509;47.992;7.848;2022-11-24T14:51:54;17.10;45.80
2439;DHT22;14509;47.992;7.848;2022-11-24T14:53:58;17.10;45.70
2439;DHT22;14509;47.992;7.848;2022-11-24T14:56:09;17.20;45.50
2439;DHT22;14509;47.992;7.848;2022-11-24T14:58:29;17.30;45.50
2439;DHT22;14509;47.992;7.848;2022-11-24T15:00:32;17.30;45.30
2439;DHT22;14509;47.992;7.848;2022-11-24T15:02:39;17.40;45.10
2439;DHT22;14509;47.992;7.848;2022-11-24T15:04:55;17.50;44.70
2439;DHT22;14509;47.992;7.848;2022-11-24T15:07:04;17.50;44.50
2439;DHT22;14509;47.992;7.848;2022-11-24T15:09:18;17.60;44.40
2439;DHT22;14509;47.992;7.848;2022-11-24T15:11:21;17.50;44.30
2439;DHT22;14509;47.992;7.848;2022-11-24T15:13:24;17.60;44.40
2439;DHT22;14509;47.992;7.848;2022-11-24T15:15:30;17.40;44.10
2439;DHT22;14509;47.992;7.848;2022-11-24T15:17:33;17.20;44.00
2439;DHT22;14509;47.992;7.848;2022-11-24T15:19:35;17.20;44.00
2439;DHT22;14509;47.992;7.848;2022-11-24T15:21:37;16.90;44.10
2439;DHT22;14509;47.992;7.848;2022-11-24T15:23:41;16.70;44.40
2439;DHT22;14509;47.992;7.848;2022-11-24T15:25:45;16.60;44.80
2439;DHT22;14509;47.992;7.848;2022-11-24T15:27:47;16.40;45.00
2439;DHT22;14509;47.992;7.848;2022-11-24T15:29:49;16.20;45.30
2439;DHT22;14509;47.992;7.848;2022-11-24T15:31:53;16.00;45.70
2439;DHT22;14509;47.992;7.848;2022-11-24T15:33:56;15.80;46.00
2439;DHT22;14509;47.992;7.848;2022-11-24T15:35:58;15.70;46.20
2439;DHT22;14509;47.992;7.848;2022-11-24T15:38:01;15.60;46.50
2439;DHT22;14509;47.992;7.848;2022-11-24T15:40:05;15.40;46.80
2439;DHT22;14509;47.992;7.848;2022-11-24T15:42:09;15.20;47.30
2439;DHT22;14509;47.992;7.848;2022-11-24T15:44:12;15.10;47.80
2439;DHT22;14509;47.992;7.848;2022-11-24T15:46:14;15.00;48.00
2439;DHT22;14509;47.992;7.848;2022-11-24T15:48:16;14.80;48.20
2439;DHT22;14509;47.992;7.848;2022-11-24T15:50:19;14.50;48.30
2439;DHT22;14509;47.992;7.848;2022-11-24T15:52:21;14.60;49.50
2439;DHT22;14509;47.992;7.848;2022-11-24T15:54:23;14.50;49.00
2439;DHT22;14509;47.992;7.848;2022-11-24T15:56:30;14.40;49.20
2439;DHT22;14509;47.992;7.848;2022-11-24T15:58:33;14.30;49.50
2439;DHT22;14509;47.992;7.848;2022-11-24T16:00:35;14.30;49.70
2439;DHT22;14509;47.992;7.848;2022-11-24T16:02:37;14.10;49.80
2439;DHT22;14509;47.992;7.848;2022-11-24T16:04:39;14.10;50.10
2439;DHT22;14509;47.992;7.848;2022-11-24T16:06:41;13.90;50.10
2439;DHT22;14509;47.992;7.848;2022-11-24T16:08:43;13.80;50.30
2439;DHT22;14509;47.992;7.848;2022-11-24T16:10:45;13.80;50.70
2439;DHT22;14509;47.992;7.848;2022-11-24T16:12:49;13.70;51.10
2439;DHT22;14509;47.992;7.848;2022-11-24T16:14:51;13.60;51.30
2439;DHT22;14509;47.992;7.848;2022-11-24T16:16:53;13.60;51.70
2439;DHT22;14509;47.992;7.848;2022-11-24T16:18:55;13.40;51.80
2439;DHT22;14509;47.992;7.848;2022-11-24T16:20:57;13.40;52.20
2439;DHT22;14509;47.992;7.848;2022-11-24T16:22:59;13.40;52.50
2439;DHT22;14509;47.992;7.848;2022-11-24T16:25:01;13.40;52.80
2439;DHT22;14509;47.992;7.848;2022-11-24T16:27:03;13.30;52.80
2439;DHT22;14509;47.992;7.848;2022-11-24T16:29:07;13.10;52.90
2439;DHT22;14509;47.992;7.848;2022-11-24T16:31:09;13.10;52.90
2439;DHT22;14509;47.992;7.848;2022-11-24T16:33:12;13.20;53.10
2439;DHT22;14509;47.992;7.848;2022-11-24T16:35:14;13.00;53.10
2439;DHT22;14509;47.992;7.848;2022-11-24T16:37:16;13.00;53.30
2439;DHT22;14509;47.992;7.848;2022-11-24T16:39:20;12.90;53.40
2439;DHT22;14509;47.992;7.848;2022-11-24T16:41:22;13.00;53.60
2439;DHT22;14509;47.992;7.848;2022-11-24T16:43:24;12.90;53.70
2439;DHT22;14509;47.992;7.848;2022-11-24T16:45:30;13.40;54.30
2439;DHT22;14509;47.992;7.848;2022-11-24T16:47:38;12.80;53.80
2439;DHT22;14509;47.992;7.848;2022-11-24T16:49:41;12.70;53.90
2439;DHT22;14509;47.992;7.848;2022-11-24T16:51:43;12.60;53.90
2439;DHT22;14509;47.992;7.848;2022-11-24T16:53:45;12.60;54.10
2439;DHT22;14509;47.992;7.848;2022-11-24T16:55:55;12.60;54.10
2439;DHT22;14509;47.992;7.848;2022-11-24T16:57:57;12.50;54.10
2439;DHT22;14509;47.992;7.848;2022-11-24T16:59:59;12.50;54.10
2439;DHT22;14509;47.992;7.848;2022-11-24T17:02:03;12.50;54.20
2439;DHT22;14509;47.992;7.848;2022-11-24T17:04:05;12.40;54.30
2439;DHT22;14509;47.992;7.848;2022-11-24T17:06:09;12.40;54.30
2439;DHT22;14509;47.992;7.848;2022-11-24T17:08:12;12.60;54.50
2439;DHT22;14509;47.992;7.848;2022-11-24T17:10:14;12.20;54.20
2439;DHT22;14509;47.992;7.848;2022-11-24T17:12:16;12.30;54.50
2439;DHT22;14509;47.992;7.848;2022-11-24T17:14:18;12.30;54.80
2439;DHT22;14509;47.992;7.848;2022-11-24T17:16:21;12.30;54.90
2439;DHT22;14509;47.992;7.848;2022-11-24T17:18:25;12.20;55.00
2439;DHT22;14509;47.992;7.848;2022-11-24T17:20:27;12.10;54.90
2439;DHT22;14509;47.992;7.848;2022-11-24T17:22:30;12.10;55.50
2439;DHT22;14509;47.992;7.848;2022-11-24T17:24:32;12.00;54.90
2439;DHT22;14509;47.992;7.848;2022-11-24T17:26:35;12.00;55.00
2439;DHT22;14509;47.992;7.848;2022-11-24T17:28:37;12.00;55.10
2439;DHT22;14509;47.992;7.848;2022-11-24T17:30:39;12.00;55.20
2439;DHT22;14509;47.992;7.848;2022-11-24T17:32:41;11.90;55.20
2439;DHT22;14509;47.992;7.848;2022-11-24T17:34:44;12.10;55.40
2439;DHT22;14509;47.992;7.848;2022-11-24T17:36:46;11.90;55.30
2439;DHT22;14509;47.992;7.848;2022-11-24T17:38:48;11.80;55.30
2439;DHT22;14509;47.992;7.848;2022-11-24T17:40:50;12.10;55.60
2439;DHT22;14509;47.992;7.848;2022-11-24T17:42:52;12.00;55.70
2439;DHT22;14509;47.992;7.848;2022-11-24T17:44:57;11.70;55.70
2439;DHT22;14509;47.992;7.848;2022-11-24T17:46:59;11.70;55.80
2439;DHT22;14509;47.992;7.848;2022-11-24T17:49:01;11.70;55.70
2439;DHT22;14509;47.992;7.848;2022-11-24T17:51:07;11.60;55.50
2439;DHT22;14509;47.992;7.848;2022-11-24T17:53:10;11.60;55.60
2439;DHT22;14509;47.992;7.848;2022-11-24T17:55:12;11.60;55.60
2439;DHT22;14509;47.992;7.848;2022-11-24T17:57:14;11.60;55.70
2439;DHT22;14509;47.992;7.848;2022-11-24T17:59:16;11.60;55.80
2439;DHT22;14509;47.992;7.848;2022-11-24T18:01:18;11.50;56.10
2439;DHT22;14509;47.992;7.848;2022-11-24T18:03:20;11.50;56.10
2439;DHT22;14509;47.992;7.848;2022-11-24T18:05:22;11.50;56.10
2439;DHT22;14509;47.992;7.848;2022-11-24T18:07:26;11.50;56.00
2439;DHT22;14509;47.992;7.848;2022-11-24T18:09:28;11.50;55.90
2439;DHT22;14509;47.992;7.848;2022-11-24T18:11:31;11.40;56.00
2439;DHT22;14509;47.992;7.848;2022-11-24T18:13:33;11.30;56.20
2439;DHT22;14509;47.992;7.848;2022-11-24T18:15:35;11.30;56.20
2439;DHT22;14509;47.992;7.848;2022-11-24T18:17:37;11.30;56.30
2439;DHT22;14509;47.992;7.848;2022-11-24T18:19:39;11.20;56.20
2439;DHT22;14509;47.992;7.848;2022-11-24T18:21:42;11.20;56.40
2439;DHT22;14509;47.992;7.848;2022-11-24T18:23:46;11.20;56.60
2439;DHT22;14509;47.992;7.848;2022-11-24T18:25:51;11.20;56.60
2439;DHT22;14509;47.992;7.848;2022-11-24T18:27:53;11.20;56.50
2439;DHT22;14509;47.992;7.848;2022-11-24T18:29:55;11.00;56.40
2439;DHT22;14509;47.992;7.848;2022-11-24T18:31:57;11.10;56.50
2439;DHT22;14509;47.992;7.848;2022-11-24T18:34:00;11.30;56.90
2439;DHT22;14509;47.992;7.848;2022-11-24T18:36:03;11.00;56.80
2439;DHT22;14509;47.992;7.848;2022-11-24T18:38:06;11.10;56.90
2439;DHT22;14509;47.992;7.848;2022-11-24T18:40:11;11.00;56.80
2439;DHT22;14509;47.992;7.848;2022-11-24T18:42:13;11.00;56.70
2439;DHT22;14509;47.992;7.848;2022-11-24T18:44:16;11.00;56.70
2439;DHT22;14509;47.992;7.848;2022-11-24T18:46:18;11.20;57.10
2439;DHT22;14509;47.992;7.848;2022-11-24T18:48:21;11.00;57.00
2439;DHT22;14509;47.992;7.848;2022-11-24T18:50:23;10.90;57.10
2439;DHT22;14509;47.992;7.848;2022-11-24T18:52:25;11.00;57.10
2439;DHT22;14509;47.992;7.848;2022-11-24T18:54:27;10.90;57.00
2439;DHT22;14509;47.992;7.848;2022-11-24T18:56:31;10.90;57.00
2439;DHT22;14509;47.992;7.848;2022-11-24T18:58:34;10.90;57.00
2439;DHT22;14509;47.992;7.848;2022-11-24T19:00:36;11.00;57.10
2439;DHT22;14509;47.992;7.848;2022-11-24T19:02:38;10.90;57.10
2439;DHT22;14509;47.992;7.848;2022-11-24T19:04:40;11.00;57.70
2439;DHT22;14509;47.992;7.848;2022-11-24T19:06:42;10.90;57.00
2439;DHT22;14509;47.992;7.848;2022-11-24T19:08:44;10.90;56.90
2439;DHT22;14509;47.992;7.848;2022-11-24T19:10:46;10.90;56.90
2439;DHT22;14509;47.992;7.848;2022-11-24T19:12:50;10.90;56.90
2439;DHT22;14509;47.992;7.848;2022-11-24T19:14:53;10.80;56.80